Time;durP1;ratioP1;P1;durP2;ratioP2;P2;SDS_P1;SDS_P2;PMS_P1;PMS_P2;Temp;Humidity;BMP_temperature;BMP_pressure;BME280_temperature;BME280_humidity;BME280_pressure;Samples;Min_cycle;Max_cycle;Signal;HPM_P1;HPM_P2
2023/02/18 00:01:01;;;;;;;13.20;3.07;;;;;;;;;;5006111;28;20431;-71
2023/02/18 00:03:27;;;;;;;12.57;2.87;;;;;;;;;;5004549;28;20215;-71
2023/02/18 00:05:53;;;;;;;11.27;2.70;;;;;;;;;;5004984;28;20642;-71
2023/02/18 00:08:18;;;;;;;12.07;3.00;;;;;;;;;;5012732;28;20439;-70
2023/02/18 00:10:44;;;;;;;11.17;3.07;;;;;;;;;;5006103;28;20264;-71
2023/02/18 00:13:09;;;;;;;12.80;3.47;;;;;;;;;;5007487;28;20420;-71
2023/02/18 00:15:35;;;;;;;12.90;2.73;;;;;;;;;;5004372;28;20439;-71
2023/02/18 00:18:00;;;;;;;13.80;2.50;;;;;;;;;;5005362;28;20185;-70
2023/02/18 00:20:25;;;;;;;12.93;3.00;;;;;;;;;;5002966;28;20177;-71
2023/02/18 00:22:51;;;;;;;16.67;2.47;;;;;;;;;;5004074;28;20194;-71
2023/02/18 00:25:16;;;;;;;14.87;2.90;;;;;;;;;;5001752;28;20254;-70
2023/02/18 00:27:41;;;;;;;8.73;2.40;;;;;;;;;;4999554;28;20189;-71
2023/02/18 00:30:07;;;;;;;12.57;3.33;;;;;;;;;;5000095;28;20231;-71
2023/02/18 00:32:33;;;;;;;14.20;3.53;;;;;;;;;;4999524;28;20181;-71
2023/02/18 00:34:58;;;;;;;8.90;2.67;;;;;;;;;;5000564;28;20223;-71
2023/02/18 00:37:24;;;;;;;12.77;3.00;;;;;;;;;;5003053;28;20439;-71
2023/02/18 00:39:49;;;;;;;16.13;3.50;;;;;;;;;;4995228;28;20185;-71
2023/02/18 00:42:14;;;;;;;13.10;2.60;;;;;;;;;;5003677;28;20231;-71
2023/02/18 00:44:39;;;;;;;14.63;2.70;;;;;;;;;;4999570;28;20213;-71
2023/02/18 00:47:05;;;;;;;11.30;2.57;;;;;;;;;;5002984;28;20189;-71
2023/02/18 00:49:30;;;;;;;8.60;2.50;;;;;;;;;;5002581;28;20181;-71
2023/02/18 00:51:55;;;;;;;13.50;3.20;;;;;;;;;;5005521;28;20197;-71
2023/02/18 00:54:21;;;;;;;17.40;3.40;;;;;;;;;;5006272;28;20189;-71
2023/02/18 00:56:46;;;;;;;16.77;3.83;;;;;;;;;;5007269;28;20626;-71
2023/02/18 00:59:11;;;;;;;15.20;3.50;;;;;;;;;;5007092;28;20187;-71
2023/02/18 01:01:37;;;;;;;17.27;4.03;;;;;;;;;;4997396;28;20239;-72
2023/02/18 01:04:02;;;;;;;11.20;2.63;;;;;;;;;;5000265;28;20210;-72
2023/02/18 01:06:27;;;;;;;14.30;2.83;;;;;;;;;;4988902;28;20708;-72
2023/02/18 01:08:52;;;;;;;13.63;3.03;;;;;;;;;;5001787;28;20192;-72
2023/02/18 01:11:18;;;;;;;15.13;3.70;;;;;;;;;;4990282;28;20695;-72
2023/02/18 01:13:43;;;;;;;16.77;3.20;;;;;;;;;;5000211;28;20642;-72
2023/02/18 01:16:09;;;;;;;17.03;3.93;;;;;;;;;;5001498;28;20219;-72
2023/02/18 01:18:34;;;;;;;13.90;3.30;;;;;;;;;;4998815;28;20189;-72
2023/02/18 01:20:59;;;;;;;15.60;3.73;;;;;;;;;;5006682;28;20189;-72
2023/02/18 01:23:25;;;;;;;11.80;3.37;;;;;;;;;;5004703;28;20240;-72
2023/02/18 01:25:51;;;;;;;16.70;3.40;;;;;;;;;;5008332;28;20189;-72
2023/02/18 01:28:17;;;;;;;16.77;3.70;;;;;;;;;;5004002;28;20189;-72
2023/02/18 01:30:42;;;;;;;15.20;2.70;;;;;;;;;;5009480;28;20562;-71
2023/02/18 01:33:08;;;;;;;20.13;3.10;;;;;;;;;;5004532;28;20432;-72
2023/02/18 01:35:33;;;;;;;17.07;3.77;;;;;;;;;;4995130;28;20834;-72
2023/02/18 01:37:59;;;;;;;13.70;2.50;;;;;;;;;;4993739;28;20201;-72
2023/02/18 01:40:25;;;;;;;14.30;3.27;;;;;;;;;;4983052;28;20185;-71
2023/02/18 01:42:50;;;;;;;19.50;3.50;;;;;;;;;;4993221;28;20184;-71
2023/02/18 01:45:34;;;;;;;12.33;2.43;;;;;;;;;;4992676;28;20466;-71
2023/02/18 01:48:02;;;;;;;10.50;2.50;;;;;;;;;;4995390;28;20185;-72
2023/02/18 01:50:28;;;;;;;17.50;3.17;;;;;;;;;;4995655;28;20439;-72
2023/02/18 01:52:53;;;;;;;18.30;3.13;;;;;;;;;;5000860;28;20439;-71
2023/02/18 01:55:19;;;;;;;14.60;3.07;;;;;;;;;;4999769;28;20682;-71
2023/02/18 01:57:44;;;;;;;10.07;2.47;;;;;;;;;;5001525;28;20188;-71
2023/02/18 02:00:11;;;;;;;11.60;2.80;;;;;;;;;;5003782;28;20180;-71
2023/02/18 02:02:38;;;;;;;8.57;2.97;;;;;;;;;;5002111;28;20200;-71
2023/02/18 02:05:03;;;;;;;20.37;3.53;;;;;;;;;;5005791;28;20563;-71
2023/02/18 02:07:28;;;;;;;12.57;3.03;;;;;;;;;;4998220;28;20559;-71
2023/02/18 02:09:56;;;;;;;15.63;3.00;;;;;;;;;;4997725;28;20331;-71
2023/02/18 02:12:40;;;;;;;11.80;2.57;;;;;;;;;;4996803;28;20184;-71
2023/02/18 02:15:17;;;;;;;13.30;3.10;;;;;;;;;;4999404;28;20467;-71
2023/02/18 02:18:01;;;;;;;10.20;2.30;;;;;;;;;;4995429;28;20447;-71
2023/02/18 02:20:45;;;;;;;14.10;3.90;;;;;;;;;;4993400;28;20442;-71
2023/02/18 02:23:10;;;;;;;10.80;2.53;;;;;;;;;;5002733;28;20470;-71
2023/02/18 02:25:54;;;;;;;13.60;2.40;;;;;;;;;;5000075;28;20456;-72
2023/02/18 02:28:19;;;;;;;12.00;2.83;;;;;;;;;;5006690;28;20173;-71
2023/02/18 02:30:54;;;;;;;9.90;2.53;;;;;;;;;;5005945;28;20423;-71
2023/02/18 02:33:19;;;;;;;10.77;2.70;;;;;;;;;;5002661;28;20177;-71
2023/02/18 02:36:00;;;;;;;15.63;3.10;;;;;;;;;;5006827;28;20447;-72
2023/02/18 02:38:31;;;;;;;8.23;2.47;;;;;;;;;;5007661;28;20705;-71
2023/02/18 02:41:02;;;;;;;15.03;2.10;;;;;;;;;;5007168;28;20451;-71
2023/02/18 02:44:05;;;;;;;7.90;3.13;;;;;;;;;;5006854;28;20551;-71
2023/02/18 02:46:42;;;;;;;12.37;2.97;;;;;;;;;;4942081;28;20705;-71
2023/02/18 02:49:26;;;;;;;15.67;2.47;;;;;;;;;;4938453;28;20443;-71
2023/02/18 02:51:54;;;;;;;11.13;2.57;;;;;;;;;;4980912;28;20857;-71
2023/02/18 02:54:21;;;;;;;9.97;2.40;;;;;;;;;;4999416;28;20433;-71
2023/02/18 02:56:46;;;;;;;13.10;2.67;;;;;;;;;;5000109;28;20866;-72
2023/02/18 02:59:14;;;;;;;7.87;1.97;;;;;;;;;;5001118;28;20439;-71
2023/02/18 03:01:46;;;;;;;12.40;2.47;;;;;;;;;;5004554;28;20212;-72
2023/02/18 03:04:37;;;;;;;15.90;3.93;;;;;;;;;;5001480;28;21058;-71
2023/02/18 03:07:21;;;;;;;10.67;2.87;;;;;;;;;;4992802;28;20911;-72
2023/02/18 03:09:47;;;;;;;10.10;2.50;;;;;;;;;;5001887;28;20440;-71
2023/02/18 03:12:18;;;;;;;8.13;2.90;;;;;;;;;;4997304;28;20807;-72
2023/02/18 03:14:53;;;;;;;12.07;2.63;;;;;;;;;;5003450;28;20205;-71
2023/02/18 03:17:23;;;;;;;6.13;2.00;;;;;;;;;;4997868;28;20435;-71
2023/02/18 03:20:08;;;;;;;7.00;2.73;;;;;;;;;;5000225;28;20452;-71
2023/02/18 03:22:38;;;;;;;10.53;2.27;;;;;;;;;;5004496;28;20440;-71
2023/02/18 03:25:04;;;;;;;9.20;2.33;;;;;;;;;;5001478;28;20475;-71
2023/02/18 03:27:34;;;;;;;10.47;2.90;;;;;;;;;;5002070;28;20435;-71
2023/02/18 03:30:19;;;;;;;14.20;3.20;;;;;;;;;;4997017;28;20174;-71
2023/02/18 03:32:47;;;;;;;6.00;2.40;;;;;;;;;;4996271;28;21035;-71
2023/02/18 03:35:14;;;;;;;8.87;2.50;;;;;;;;;;5001198;28;20980;-71
2023/02/18 03:37:42;;;;;;;9.60;2.47;;;;;;;;;;4995276;28;20433;-72
2023/02/18 03:40:09;;;;;;;11.20;2.60;;;;;;;;;;5001194;28;20443;-71
2023/02/18 03:42:34;;;;;;;14.30;4.07;;;;;;;;;;5000454;28;20792;-72
2023/02/18 03:44:59;;;;;;;7.10;1.80;;;;;;;;;;5006505;28;20475;-71
2023/02/18 03:47:24;;;;;;;10.63;2.93;;;;;;;;;;5003963;28;20215;-70
2023/02/18 03:49:50;;;;;;;11.50;2.40;;;;;;;;;;5004282;28;20192;-71
2023/02/18 03:52:15;;;;;;;10.33;2.73;;;;;;;;;;4995295;28;20208;-71
2023/02/18 03:54:41;;;;;;;11.87;2.23;;;;;;;;;;4999729;28;20191;-72
2023/02/18 03:57:06;;;;;;;13.80;2.80;;;;;;;;;;4997628;28;20215;-71
2023/02/18 03:59:31;;;;;;;9.13;3.03;;;;;;;;;;5002990;28;20654;-71
2023/02/18 04:01:56;;;;;;;8.87;2.50;;;;;;;;;;5001837;28;20184;-71
2023/02/18 04:04:22;;;;;;;9.33;2.40;;;;;;;;;;5002402;28;20209;-71
2023/02/18 04:06:47;;;;;;;11.47;2.37;;;;;;;;;;5002253;28;20280;-71
2023/02/18 04:09:12;;;;;;;9.93;2.80;;;;;;;;;;4998953;28;20181;-71
2023/02/18 04:11:38;;;;;;;11.07;2.63;;;;;;;;;;5001998;28;20235;-71
2023/02/18 04:14:04;;;;;;;10.03;2.60;;;;;;;;;;5000280;28;20189;-71
2023/02/18 04:16:29;;;;;;;12.37;3.63;;;;;;;;;;4998865;28;20602;-71
2023/02/18 04:18:55;;;;;;;15.07;3.13;;;;;;;;;;4998120;28;20640;-71
2023/02/18 04:21:20;;;;;;;15.83;3.60;;;;;;;;;;4999668;28;20185;-71
2023/02/18 04:23:45;;;;;;;10.87;3.17;;;;;;;;;;4999703;28;20200;-71
2023/02/18 04:26:10;;;;;;;12.20;3.23;;;;;;;;;;5004850;28;20212;-71
2023/02/18 04:28:36;;;;;;;10.60;4.53;;;;;;;;;;5003885;28;20231;-71
2023/02/18 04:31:01;;;;;;;16.30;3.67;;;;;;;;;;5006127;28;20188;-71
2023/02/18 04:33:26;;;;;;;11.40;2.90;;;;;;;;;;4997375;28;20188;-71
2023/02/18 04:35:51;;;;;;;15.50;3.97;;;;;;;;;;5005464;28;20233;-71
2023/02/18 04:38:17;;;;;;;15.23;3.80;;;;;;;;;;5000874;28;20196;-71
2023/02/18 04:40:42;;;;;;;13.80;3.70;;;;;;;;;;5006257;28;20600;-71
2023/02/18 04:43:07;;;;;;;17.37;3.73;;;;;;;;;;5004885;28;20223;-71
2023/02/18 04:45:33;;;;;;;12.77;3.43;;;;;;;;;;5005423;28;20197;-71
2023/02/18 04:47:58;;;;;;;12.07;3.50;;;;;;;;;;5004507;28;20184;-71
2023/02/18 04:50:23;;;;;;;15.00;4.23;;;;;;;;;;5003053;28;20550;-71
2023/02/18 04:52:48;;;;;;;11.60;3.43;;;;;;;;;;5000173;28;20191;-71
2023/02/18 04:55:14;;;;;;;13.33;3.43;;;;;;;;;;4999821;28;20571;-71
2023/02/18 04:57:39;;;;;;;12.10;3.20;;;;;;;;;;5000010;28;20219;-71
2023/02/18 05:00:05;;;;;;;9.10;3.10;;;;;;;;;;5002332;28;20227;-71
2023/02/18 05:02:31;;;;;;;8.20;3.20;;;;;;;;;;4998688;28;20627;-71
2023/02/18 05:04:56;;;;;;;13.80;3.40;;;;;;;;;;5000625;28;20490;-71
2023/02/18 05:07:22;;;;;;;11.70;4.20;;;;;;;;;;5001247;28;20178;-71
2023/02/18 05:09:47;;;;;;;9.60;4.40;;;;;;;;;;4998100;28;20181;-71
2023/02/18 05:12:12;;;;;;;11.83;4.77;;;;;;;;;;4999334;28;20212;-71
2023/02/18 05:14:37;;;;;;;11.63;4.50;;;;;;;;;;4999585;28;20177;-71
2023/02/18 05:17:03;;;;;;;12.93;4.77;;;;;;;;;;5002891;28;20436;-71
2023/02/18 05:19:28;;;;;;;15.80;5.07;;;;;;;;;;5002244;28;20626;-71
2023/02/18 05:21:53;;;;;;;14.60;5.23;;;;;;;;;;4992916;28;20189;-71
2023/02/18 05:24:18;;;;;;;11.67;4.80;;;;;;;;;;4996550;28;20291;-71
2023/02/18 05:26:44;;;;;;;16.00;5.80;;;;;;;;;;4999835;28;20216;-71
2023/02/18 05:29:09;;;;;;;12.63;4.87;;;;;;;;;;4997546;28;20602;-71
2023/02/18 05:31:34;;;;;;;18.37;5.50;;;;;;;;;;5003030;28;20177;-70
2023/02/18 05:34:00;;;;;;;9.27;5.80;;;;;;;;;;5001080;28;20177;-71
2023/02/18 05:36:25;;;;;;;13.77;6.27;;;;;;;;;;5005663;28;20235;-71
2023/02/18 05:38:50;;;;;;;12.33;6.53;;;;;;;;;;5004460;28;20635;-71
2023/02/18 05:41:15;;;;;;;16.37;6.87;;;;;;;;;;5004550;28;20221;-71
2023/02/18 05:46:26;;;;;;;12.23;6.33;;;;;;;;;;4986205;28;20213;-72
2023/02/18 05:48:51;;;;;;;15.80;7.50;;;;;;;;;;5000498;28;20494;-71
2023/02/18 05:51:17;;;;;;;11.67;6.37;;;;;;;;;;5005206;28;20177;-71
2023/02/18 05:53:42;;;;;;;12.93;7.33;;;;;;;;;;5007782;28;20200;-71
2023/02/18 05:56:07;;;;;;;15.63;7.07;;;;;;;;;;5002078;28;20570;-71
2023/02/18 05:58:33;;;;;;;12.37;6.57;;;;;;;;;;5004556;28;20189;-71
2023/02/18 06:00:58;;;;;;;12.87;7.93;;;;;;;;;;5007587;28;20181;-71
2023/02/18 06:03:23;;;;;;;10.60;6.97;;;;;;;;;;5005834;28;20197;-71
2023/02/18 06:05:49;;;;;;;11.70;6.70;;;;;;;;;;5000548;28;20263;-72
2023/02/18 06:08:14;;;;;;;13.33;7.33;;;;;;;;;;4997885;28;20717;-71
2023/02/18 06:10:39;;;;;;;11.90;7.93;;;;;;;;;;5004366;28;20708;-71
2023/02/18 06:13:04;;;;;;;11.13;7.37;;;;;;;;;;4998566;28;20181;-71
2023/02/18 06:15:30;;;;;;;11.10;6.30;;;;;;;;;;5003680;28;20716;-72
2023/02/18 06:17:55;;;;;;;12.60;7.90;;;;;;;;;;4999823;28;20193;-71
2023/02/18 06:20:20;;;;;;;9.83;7.30;;;;;;;;;;5004336;28;20259;-71
2023/02/18 06:22:45;;;;;;;11.23;7.87;;;;;;;;;;4998524;28;20190;-71
2023/02/18 06:25:11;;;;;;;9.27;7.57;;;;;;;;;;5007127;28;20212;-71
2023/02/18 06:27:36;;;;;;;11.67;8.07;;;;;;;;;;5003852;28;20247;-71
2023/02/18 06:30:01;;;;;;;11.60;8.80;;;;;;;;;;5007225;28;20177;-71
2023/02/18 06:32:27;;;;;;;10.90;8.33;;;;;;;;;;5007636;28;20177;-71
2023/02/18 06:34:52;;;;;;;11.33;8.70;;;;;;;;;;5002786;28;20201;-71
2023/02/18 06:37:17;;;;;;;12.80;9.10;;;;;;;;;;5005394;28;20276;-71
2023/02/18 06:39:43;;;;;;;11.97;8.93;;;;;;;;;;5005512;28;20279;-71
2023/02/18 06:42:08;;;;;;;12.83;10.30;;;;;;;;;;5007219;28;20188;-71
2023/02/18 06:44:33;;;;;;;13.87;11.03;;;;;;;;;;5000717;28;20256;-71
2023/02/18 06:46:58;;;;;;;16.53;12.27;;;;;;;;;;5008361;28;20177;-71
2023/02/18 06:49:24;;;;;;;14.93;12.53;;;;;;;;;;5004276;28;20237;-72
2023/02/18 06:51:49;;;;;;;18.87;14.97;;;;;;;;;;5002522;28;20265;-72
2023/02/18 06:54:14;;;;;;;16.00;13.50;;;;;;;;;;5008551;28;20174;-72
2023/02/18 06:56:41;;;;;;;17.50;13.97;;;;;;;;;;5005845;28;20228;-72
2023/02/18 06:59:07;;;;;;;15.93;13.70;;;;;;;;;;5005579;28;20440;-72
2023/02/18 07:01:32;;;;;;;19.20;13.47;;;;;;;;;;5006294;28;20189;-72
2023/02/18 07:03:57;;;;;;;18.40;14.90;;;;;;;;;;5007108;28;20486;-72
2023/02/18 07:06:22;;;;;;;17.30;14.83;;;;;;;;;;5006841;28;20629;-72
2023/02/18 07:08:48;;;;;;;19.67;16.00;;;;;;;;;;5000367;28;20185;-72
2023/02/18 07:11:13;;;;;;;16.70;13.70;;;;;;;;;;5009474;28;20188;-72
2023/02/18 07:13:38;;;;;;;17.20;15.27;;;;;;;;;;5007587;28;20588;-72
2023/02/18 07:16:04;;;;;;;18.00;14.80;;;;;;;;;;5008774;28;20589;-72
2023/02/18 07:18:29;;;;;;;21.73;15.30;;;;;;;;;;4999489;28;20192;-72
2023/02/18 07:20:54;;;;;;;15.43;13.67;;;;;;;;;;5003759;28;20185;-72
2023/02/18 07:23:20;;;;;;;19.00;14.37;;;;;;;;;;5003632;28;20581;-72
2023/02/18 07:25:45;;;;;;;17.73;14.20;;;;;;;;;;5008204;28;20204;-72
2023/02/18 07:28:10;;;;;;;15.30;13.13;;;;;;;;;;5004978;28;20181;-72
2023/02/18 07:30:35;;;;;;;17.27;13.37;;;;;;;;;;5008526;28;20173;-72
2023/02/18 07:33:01;;;;;;;11.40;10.20;;;;;;;;;;5004627;28;20180;-72
2023/02/18 07:35:26;;;;;;;12.17;10.90;;;;;;;;;;5002680;28;20201;-72
2023/02/18 07:37:51;;;;;;;15.00;11.20;;;;;;;;;;5002833;28;20251;-72
2023/02/18 07:40:18;;;;;;;12.20;10.57;;;;;;;;;;5001302;28;20187;-72
2023/02/18 07:42:43;;;;;;;11.20;9.90;;;;;;;;;;4999129;28;20208;-72
2023/02/18 07:45:09;;;;;;;12.13;9.57;;;;;;;;;;4997700;28;20876;-72
2023/02/18 07:47:34;;;;;;;10.10;9.00;;;;;;;;;;4993982;28;20216;-72
2023/02/18 07:50:00;;;;;;;8.53;7.63;;;;;;;;;;5000567;28;20169;-72
2023/02/18 07:52:25;;;;;;;8.40;7.23;;;;;;;;;;4998816;28;20653;-72
2023/02/18 07:54:50;;;;;;;7.70;6.90;;;;;;;;;;4995077;28;20304;-72
2023/02/18 07:57:15;;;;;;;7.30;6.50;;;;;;;;;;4993144;28;20193;-73
2023/02/18 07:59:41;;;;;;;6.33;5.60;;;;;;;;;;4980541;28;20208;-71
2023/02/18 08:02:09;;;;;;;7.20;6.50;;;;;;;;;;4987708;28;20555;-72
2023/02/18 08:04:34;;;;;;;6.40;5.80;;;;;;;;;;4994415;28;20208;-71
2023/02/18 08:06:59;;;;;;;8.17;7.30;;;;;;;;;;4997301;28;20808;-71
2023/02/18 08:09:25;;;;;;;7.73;6.93;;;;;;;;;;4989300;28;20260;-71
2023/02/18 08:11:50;;;;;;;9.60;8.60;;;;;;;;;;4991147;28;20427;-72
2023/02/18 08:14:15;;;;;;;11.67;9.27;;;;;;;;;;4995638;28;20185;-71
2023/02/18 08:16:41;;;;;;;10.90;9.80;;;;;;;;;;4997785;28;20242;-72
2023/02/18 08:19:06;;;;;;;15.40;11.53;;;;;;;;;;4998362;28;20191;-70
2023/02/18 08:21:32;;;;;;;16.20;11.73;;;;;;;;;;5001546;28;20177;-71
2023/02/18 08:23:57;;;;;;;16.10;11.47;;;;;;;;;;4993423;28;20295;-71
2023/02/18 08:26:23;;;;;;;14.23;12.10;;;;;;;;;;4998363;28;20600;-71
2023/02/18 08:28:48;;;;;;;19.17;11.93;;;;;;;;;;5000371;28;20185;-73
2023/02/18 08:31:21;;;;;;;12.80;11.40;;;;;;;;;;4998568;28;20177;-73
2023/02/18 08:33:47;;;;;;;14.60;10.67;;;;;;;;;;4991848;28;20192;-73
2023/02/18 08:36:12;;;;;;;17.67;10.57;;;;;;;;;;4998313;28;20460;-74
2023/02/18 08:38:38;;;;;;;15.87;10.27;;;;;;;;;;4989135;28;20189;-73
2023/02/18 08:41:04;;;;;;;12.27;8.50;;;;;;;;;;4990282;28;20669;-74
2023/02/18 08:43:30;;;;;;;14.50;8.37;;;;;;;;;;5000403;28;20201;-74
2023/02/18 08:45:56;;;;;;;13.40;8.33;;;;;;;;;;5000797;28;20467;-75
2023/02/18 08:48:21;;;;;;;12.60;8.60;;;;;;;;;;5001108;28;20177;-74
2023/02/18 08:50:47;;;;;;;11.00;8.07;;;;;;;;;;4996619;28;20955;-74
2023/02/18 08:53:12;;;;;;;11.87;8.87;;;;;;;;;;4996193;28;20181;-74
2023/02/18 08:55:39;;;;;;;12.50;8.27;;;;;;;;;;4996139;28;20551;-73
2023/02/18 08:58:05;;;;;;;14.67;8.47;;;;;;;;;;4995122;28;20209;-74
2023/02/18 09:00:30;;;;;;;18.07;8.10;;;;;;;;;;5001992;28;20420;-74
2023/02/18 09:02:56;;;;;;;17.80;8.67;;;;;;;;;;4999276;28;20509;-73
2023/02/18 09:05:21;;;;;;;14.97;7.00;;;;;;;;;;4996947;28;20209;-73
2023/02/18 09:07:46;;;;;;;11.27;7.00;;;;;;;;;;5000193;28;20452;-74
2023/02/18 09:10:11;;;;;;;11.57;6.67;;;;;;;;;;4999526;28;20938;-73
2023/02/18 09:12:37;;;;;;;10.80;6.83;;;;;;;;;;5006246;28;20224;-73
2023/02/18 09:15:03;;;;;;;12.07;6.57;;;;;;;;;;5007844;28;20611;-73
2023/02/18 09:17:29;;;;;;;12.13;5.47;;;;;;;;;;4998495;28;20181;-74
2023/02/18 09:19:54;;;;;;;10.50;5.30;;;;;;;;;;5003595;28;20872;-74
2023/02/18 09:22:20;;;;;;;12.10;4.90;;;;;;;;;;4992615;28;20465;-74
2023/02/18 09:24:45;;;;;;;7.63;4.50;;;;;;;;;;4997264;28;20212;-74
2023/02/18 09:27:11;;;;;;;9.53;3.73;;;;;;;;;;5001346;28;20180;-73
2023/02/18 09:29:37;;;;;;;7.07;3.77;;;;;;;;;;4996639;28;20245;-74
2023/02/18 09:32:02;;;;;;;7.73;3.60;;;;;;;;;;5005055;28;20175;-74
2023/02/18 09:34:28;;;;;;;5.90;2.63;;;;;;;;;;5005465;28;20436;-74
2023/02/18 09:36:53;;;;;;;6.00;3.07;;;;;;;;;;5000837;28;20192;-74
2023/02/18 09:39:19;;;;;;;8.00;3.00;;;;;;;;;;5005258;28;20173;-74
2023/02/18 09:41:46;;;;;;;6.20;2.70;;;;;;;;;;5003504;28;20263;-73
2023/02/18 09:44:15;;;;;;;6.43;2.80;;;;;;;;;;5006912;28;20216;-73
2023/02/18 09:46:45;;;;;;;9.17;3.20;;;;;;;;;;5005291;28;20531;-73
2023/02/18 09:49:15;;;;;;;5.70;2.30;;;;;;;;;;5012892;23;20495;-71
2023/02/18 09:51:41;;;;;;;6.00;2.30;;;;;;;;;;4975210;28;20441;-72
2023/02/18 09:54:11;;;;;;;7.83;3.83;;;;;;;;;;4985183;28;20443;-73
2023/02/18 09:56:37;;;;;;;8.30;4.10;;;;;;;;;;4977435;28;20444;-71
2023/02/18 09:59:07;;;;;;;11.67;2.83;;;;;;;;;;4981234;28;20457;-72
2023/02/18 10:01:35;;;;;;;10.80;3.17;;;;;;;;;;4984453;28;20429;-71
2023/02/18 10:04:03;;;;;;;9.00;2.70;;;;;;;;;;4989077;28;20560;-70
2023/02/18 10:06:33;;;;;;;13.40;2.70;;;;;;;;;;4972920;28;20934;-69
2023/02/18 10:09:03;;;;;;;7.53;2.77;;;;;;;;;;4971603;28;20452;-70
2023/02/18 10:11:38;;;;;;;8.03;2.40;;;;;;;;;;4976545;28;20503;-71
2023/02/18 10:14:08;;;;;;;6.80;2.00;;;;;;;;;;4975991;28;20443;-71
2023/02/18 10:16:33;;;;;;;6.40;2.50;;;;;;;;;;4970060;28;20476;-71
2023/02/18 10:18:59;;;;;;;6.93;2.67;;;;;;;;;;4971636;28;20543;-71
2023/02/18 10:21:30;;;;;;;8.57;2.10;;;;;;;;;;4976398;28;20185;-71
2023/02/18 10:24:18;;;;;;;7.47;2.20;;;;;;;;;;4960411;28;20511;-71
2023/02/18 10:26:44;;;;;;;13.57;3.00;;;;;;;;;;4975483;28;20480;-71
2023/02/18 10:29:19;;;;;;;10.23;2.47;;;;;;;;;;4969453;28;20449;-72
2023/02/18 10:31:50;;;;;;;7.90;2.30;;;;;;;;;;4976723;28;20192;-71
2023/02/18 10:34:21;;;;;;;8.03;2.50;;;;;;;;;;4972431;28;20432;-71
2023/02/18 10:36:50;;;;;;;8.00;2.40;;;;;;;;;;4965923;28;20437;-70
2023/02/18 10:39:15;;;;;;;7.03;2.27;;;;;;;;;;4965474;28;20453;-72
2023/02/18 10:41:52;;;;;;;12.40;3.07;;;;;;;;;;4973818;28;21004;-72
2023/02/18 10:44:42;;;;;;;16.67;3.37;;;;;;;;;;4971804;28;20289;-72
2023/02/18 10:47:25;;;;;;;10.33;3.37;;;;;;;;;;4965746;28;20437;-72
2023/02/18 10:49:58;;;;;;;14.93;3.70;;;;;;;;;;4985502;28;20703;-72
2023/02/18 10:52:26;;;;;;;15.30;3.37;;;;;;;;;;4974452;28;20439;-72
2023/02/18 10:54:59;;;;;;;17.60;3.80;;;;;;;;;;4983820;28;20432;-74
2023/02/18 10:57:25;;;;;;;13.40;3.07;;;;;;;;;;4980261;28;20535;-71
2023/02/18 11:00:09;;;;;;;16.20;4.00;;;;;;;;;;4980946;28;21004;-73
2023/02/18 11:02:35;;;;;;;15.27;3.53;;;;;;;;;;4988335;28;20178;-73
2023/02/18 11:05:05;;;;;;;14.43;4.00;;;;;;;;;;4993925;28;20567;-72
2023/02/18 11:07:32;;;;;;;17.70;3.30;;;;;;;;;;4982798;28;20265;-73
2023/02/18 11:09:59;;;;;;;10.60;2.63;;;;;;;;;;4981012;28;20456;-72
2023/02/18 11:12:27;;;;;;;20.87;3.87;;;;;;;;;;4986174;28;20496;-72
2023/02/18 11:15:17;;;;;;;18.27;3.50;;;;;;;;;;4986290;28;20444;-72
2023/02/18 11:17:47;;;;;;;15.03;3.40;;;;;;;;;;4983539;28;21076;-73
2023/02/18 11:20:21;;;;;;;12.80;3.43;;;;;;;;;;4976723;28;20514;-73
2023/02/18 11:22:47;;;;;;;13.13;3.40;;;;;;;;;;4974573;28;20443;-71
2023/02/18 11:25:20;;;;;;;14.97;3.10;;;;;;;;;;4973381;28;20563;-72
2023/02/18 11:27:51;;;;;;;18.37;4.07;;;;;;;;;;4975912;28;20461;-74
2023/02/18 11:30:18;;;;;;;17.03;3.90;;;;;;;;;;4972720;28;20454;-73
2023/02/18 11:32:45;;;;;;;12.90;3.50;;;;;;;;;;4970052;28;20848;-73
2023/02/18 11:35:21;;;;;;;19.07;3.60;;;;;;;;;;4976346;28;20440;-74
2023/02/18 11:37:47;;;;;;;17.73;3.40;;;;;;;;;;4975340;28;21402;-74
2023/02/18 11:40:42;;;;;;;12.63;3.40;;;;;;;;;;4977038;28;20464;-74
2023/02/18 11:43:14;;;;;;;12.00;3.20;;;;;;;;;;4978875;28;20236;-73
2023/02/18 11:45:42;;;;;;;17.03;3.33;;;;;;;;;;4975784;28;20433;-72
2023/02/18 11:48:21;;;;;;;15.53;3.07;;;;;;;;;;4978469;28;20443;-73
2023/02/18 11:50:49;;;;;;;15.07;3.03;;;;;;;;;;4978306;28;20460;-73
2023/02/18 11:53:26;;;;;;;11.33;3.63;;;;;;;;;;4980214;28;20503;-74
2023/02/18 11:55:56;;;;;;;15.40;3.07;;;;;;;;;;4980189;28;20444;-75
2023/02/18 11:58:21;;;;;;;12.07;3.67;;;;;;;;;;4980100;28;20572;-75
2023/02/18 12:00:48;;;;;;;19.27;2.90;;;;;;;;;;4975833;28;20455;-73
2023/02/18 12:03:16;;;;;;;14.60;3.90;;;;;;;;;;4972425;28;20185;-74
2023/02/18 12:05:41;;;;;;;18.53;3.50;;;;;;;;;;4976442;28;20441;-75
2023/02/18 12:08:12;;;;;;;14.17;3.17;;;;;;;;;;4974109;28;20992;-73
2023/02/18 12:10:39;;;;;;;15.33;3.37;;;;;;;;;;4978583;28;20213;-73
2023/02/18 12:13:05;;;;;;;15.63;3.50;;;;;;;;;;4980541;28;20460;-73
2023/02/18 12:15:41;;;;;;;13.00;3.23;;;;;;;;;;4981295;28;20968;-75
2023/02/18 12:18:25;;;;;;;18.43;4.27;;;;;;;;;;4988067;28;20180;-74
2023/02/18 12:20:58;;;;;;;18.07;4.10;;;;;;;;;;4982322;28;20535;-74
2023/02/18 12:23:30;;;;;;;15.23;3.30;;;;;;;;;;4970267;28;20451;-73
2023/02/18 12:25:55;;;;;;;20.40;3.47;;;;;;;;;;4982613;28;20980;-72
2023/02/18 12:28:23;;;;;;;19.80;3.70;;;;;;;;;;4981185;28;20775;-72
2023/02/18 12:31:08;;;;;;;18.87;4.03;;;;;;;;;;4974420;28;20201;-73
2023/02/18 12:33:36;;;;;;;21.47;3.77;;;;;;;;;;4974061;28;20797;-71
2023/02/18 12:36:16;;;;;;;15.30;3.90;;;;;;;;;;4979358;28;20446;-71
2023/02/18 12:38:54;;;;;;;11.03;3.10;;;;;;;;;;4981226;28;20531;-72
2023/02/18 12:41:37;;;;;;;14.90;3.40;;;;;;;;;;4979250;28;20447;-72
2023/02/18 12:44:02;;;;;;;18.50;3.73;;;;;;;;;;4974780;28;20867;-72
2023/02/18 12:46:40;;;;;;;16.50;4.30;;;;;;;;;;4981229;28;20487;-72
2023/02/18 12:49:08;;;;;;;23.90;4.40;;;;;;;;;;4974495;28;20192;-74
2023/02/18 12:51:39;;;;;;;19.57;3.73;;;;;;;;;;4983585;28;20444;-73
2023/02/18 12:54:23;;;;;;;17.57;4.27;;;;;;;;;;4983530;28;20428;-71
2023/02/18 12:56:57;;;;;;;20.57;4.37;;;;;;;;;;4981556;28;20607;-72
2023/02/18 12:59:38;;;;;;;14.73;3.83;;;;;;;;;;4980112;28;22800;-73
2023/02/18 13:02:03;;;;;;;22.23;3.60;;;;;;;;;;4980093;28;20467;-71
2023/02/18 13:04:34;;;;;;;21.57;4.23;;;;;;;;;;4977525;28;20522;-74
2023/02/18 13:07:19;;;;;;;22.73;4.37;;;;;;;;;;4980355;28;20675;-74
2023/02/18 13:09:50;;;;;;;25.50;4.40;;;;;;;;;;4979272;28;20488;-76
2023/02/18 13:12:18;;;;;;;28.10;5.70;;;;;;;;;;4977658;28;20429;-74
2023/02/18 13:14:44;;;;;;;28.63;4.27;;;;;;;;;;4983009;28;20464;-76
2023/02/18 13:17:10;;;;;;;18.17;4.00;;;;;;;;;;4978984;28;20480;-77
2023/02/18 13:19:45;;;;;;;23.03;4.53;;;;;;;;;;4979096;28;20304;-74
2023/02/18 13:22:11;;;;;;;23.80;4.10;;;;;;;;;;4985131;28;20440;-74
2023/02/18 13:24:38;;;;;;;21.17;5.07;;;;;;;;;;4986449;28;20515;-75
2023/02/18 13:27:22;;;;;;;20.07;4.50;;;;;;;;;;4977600;28;20448;-72
2023/02/18 13:30:05;;;;;;;22.90;4.47;;;;;;;;;;4971450;28;20452;-73
2023/02/18 13:32:36;;;;;;;23.47;5.23;;;;;;;;;;4985286;28;20440;-72
2023/02/18 13:35:14;;;;;;;21.67;4.23;;;;;;;;;;4985779;28;20443;-73
2023/02/18 13:37:39;;;;;;;23.43;4.07;;;;;;;;;;4985427;28;20448;-73
2023/02/18 13:40:12;;;;;;;24.23;4.50;;;;;;;;;;4987834;28;20538;-73
2023/02/18 13:42:38;;;;;;;22.13;4.00;;;;;;;;;;4988478;28;20252;-73
2023/02/18 13:45:05;;;;;;;23.33;4.50;;;;;;;;;;4985464;28;20471;-73
2023/02/18 13:47:40;;;;;;;24.17;4.73;;;;;;;;;;4986553;28;20264;-73
2023/02/18 13:50:20;;;;;;;22.30;3.97;;;;;;;;;;4989270;28;20458;-73
2023/02/18 13:52:45;;;;;;;17.90;4.03;;;;;;;;;;4991552;28;20417;-73
2023/02/18 13:55:21;;;;;;;25.67;4.93;;;;;;;;;;4981927;28;20444;-73
2023/02/18 13:57:48;;;;;;;24.23;4.90;;;;;;;;;;4989227;28;20642;-73
2023/02/18 14:00:22;;;;;;;21.77;5.03;;;;;;;;;;4986957;28;20548;-73
2023/02/18 14:02:58;;;;;;;21.20;3.60;;;;;;;;;;4986673;28;20431;-73
2023/02/18 14:05:23;;;;;;;19.10;4.70;;;;;;;;;;4989016;28;21088;-73
2023/02/18 14:07:50;;;;;;;20.20;4.97;;;;;;;;;;4989187;28;20506;-73
2023/02/18 14:10:15;;;;;;;17.07;3.60;;;;;;;;;;4989436;28;20206;-73
2023/02/18 14:12:40;;;;;;;18.70;4.10;;;;;;;;;;4987115;28;20514;-72
2023/02/18 14:15:26;;;;;;;21.47;4.17;;;;;;;;;;4984356;28;20300;-73
2023/02/18 14:17:57;;;;;;;24.77;4.67;;;;;;;;;;4982161;28;20178;-73
2023/02/18 14:20:30;;;;;;;20.70;3.77;;;;;;;;;;4989129;28;20441;-72
2023/02/18 14:22:56;;;;;;;19.73;3.47;;;;;;;;;;4989131;28;20459;-73
2023/02/18 14:25:30;;;;;;;19.40;4.03;;;;;;;;;;4984949;28;20500;-72
2023/02/18 14:28:00;;;;;;;18.77;3.70;;;;;;;;;;4988036;28;20589;-72
2023/02/18 14:30:39;;;;;;;25.03;4.77;;;;;;;;;;4988491;28;20437;-72
2023/02/18 14:33:05;;;;;;;24.90;4.80;;;;;;;;;;5005018;28;20908;-72
2023/02/18 14:35:33;;;;;;;18.97;3.87;;;;;;;;;;4988809;28;20436;-72
2023/02/18 14:38:17;;;;;;;16.73;4.27;;;;;;;;;;4988507;28;20182;-72
2023/02/18 14:40:51;;;;;;;18.43;4.50;;;;;;;;;;4984607;28;20498;-73